Time;durP1;ratioP1;P1;durP2;ratioP2;P2;SDS_P1;SDS_P2;PMS_P1;PMS_P2;Temp;Humidity;BMP_temperature;BMP_pressure;BME280_temperature;BME280_humidity;BME280_pressure;Samples;Min_cycle;Max_cycle;Signal;HPM_P1;HPM_P2
2022/06/05 00:01:57;;;;;;;15.07;7.80;;;13.70;99.90;;;;;;5086576;28;20036;-50
2022/06/05 00:04:54;;;;;;;11.50;7.65;;;13.70;99.90;;;;;;5071594;28;20103;-47
2022/06/05 00:07:40;;;;;;;13.45;7.97;;;13.70;99.90;;;;;;5088394;28;20051;-50
2022/06/05 00:10:20;;;;;;;11.80;8.38;;;13.60;99.90;;;;;;5091311;28;20044;-49
2022/06/05 00:13:10;;;;;;;11.93;8.55;;;13.60;99.90;;;;;;5071818;28;20076;-50
2022/06/05 00:15:36;;;;;;;13.10;8.10;;;13.60;99.90;;;;;;5074442;28;20299;-49
2022/06/05 00:18:02;;;;;;;11.82;7.97;;;13.60;99.90;;;;;;5090882;28;20048;-51
2022/06/05 00:20:27;;;;;;;12.23;8.52;;;13.60;99.90;;;;;;5091683;28;20032;-46
2022/06/05 00:22:54;;;;;;;9.23;8.32;;;13.60;99.90;;;;;;5073003;28;20114;-48
2022/06/05 00:25:20;;;;;;;12.98;8.65;;;13.60;99.90;;;;;;5071685;28;20037;-50
2022/06/05 00:28:19;;;;;;;12.98;8.75;;;13.60;99.90;;;;;;5087233;28;20046;-50
2022/06/05 00:30:53;;;;;;;12.23;8.25;;;13.60;99.90;;;;;;5091237;28;20485;-50
2022/06/05 00:33:37;;;;;;;15.38;8.60;;;13.50;99.90;;;;;;5088673;28;20121;-50
2022/06/05 00:36:30;;;;;;;13.98;8.98;;;13.50;99.90;;;;;;5070421;28;20052;-51
2022/06/05 00:39:09;;;;;;;12.52;8.73;;;13.50;99.90;;;;;;5072971;28;20055;-49
2022/06/05 00:41:58;;;;;;;17.40;9.60;;;13.40;99.90;;;;;;5087572;28;20036;-50
2022/06/05 00:44:43;;;;;;;17.92;10.32;;;13.40;99.90;;;;;;5083740;28;20080;-47
2022/06/05 00:47:15;;;;;;;14.85;10.27;;;13.40;99.90;;;;;;5085405;28;20422;-49
2022/06/05 00:50:08;;;;;;;13.63;10.18;;;13.40;99.90;;;;;;5071253;28;20039;-50
2022/06/05 00:52:36;;;;;;;12.52;11.15;;;13.30;99.90;;;;;;5070961;28;20040;-46
2022/06/05 00:55:03;;;;;;;13.23;10.07;;;13.30;99.90;;;;;;5071294;28;20072;-50
2022/06/05 00:57:34;;;;;;;15.55;10.48;;;13.30;99.90;;;;;;5071034;28;20119;-50
2022/06/05 01:00:03;;;;;;;13.98;10.10;;;13.30;99.90;;;;;;5071420;28;20123;-51
2022/06/05 01:02:29;;;;;;;14.32;9.93;;;13.20;99.90;;;;;;5070567;28;20032;-49
2022/06/05 01:04:55;;;;;;;17.55;10.65;;;13.20;99.90;;;;;;5071215;28;20474;-47
2022/06/05 01:07:22;;;;;;;14.40;10.23;;;13.20;99.90;;;;;;5084497;28;20111;-46
2022/06/05 01:09:49;;;;;;;;;;;13.20;99.90;;;;;;5088596;28;20086;-49
2022/06/05 01:12:57;;;;;;;14.48;10.80;;;13.20;99.90;;;;;;5088835;28;19926;-47
2022/06/05 01:15:57;;;;;;;18.42;10.77;;;13.20;99.90;;;;;;5088391;28;20449;-48
2022/06/05 01:18:44;;;;;;;13.93;10.85;;;13.20;99.90;;;;;;5091874;28;20035;-48
2022/06/05 01:21:51;;;;;;;20.35;11.27;;;13.20;99.90;;;;;;5109920;28;20048;-50
2022/06/05 01:25:05;;;;;;;17.20;10.98;;;13.20;99.90;;;;;;5069917;28;20044;-50
2022/06/05 01:27:35;;;;;;;13.73;11.25;;;13.20;99.90;;;;;;5057193;28;20055;-46
2022/06/05 01:30:12;;;;;;;14.40;10.35;;;13.20;99.90;;;;;;5075787;28;20032;-47
2022/06/05 01:32:43;;;;;;;21.83;12.00;;;13.20;99.90;;;;;;5076213;28;20032;-46
2022/06/05 01:35:25;;;;;;;14.65;10.38;;;13.20;99.90;;;;;;5090456;28;20058;-46
2022/06/05 01:37:56;;;;;;;16.20;11.60;;;13.10;99.90;;;;;;5087305;28;20043;-46
2022/06/05 01:40:48;;;;;;;15.68;11.23;;;13.10;99.90;;;;;;5078276;28;20040;-46
2022/06/05 01:43:20;;;;;;;14.13;10.93;;;13.10;99.90;;;;;;5067689;28;20127;-46
2022/06/05 01:45:55;;;;;;;17.35;11.93;;;13.10;99.90;;;;;;5070192;28;20051;-47
2022/06/05 01:48:33;;;;;;;17.23;11.25;;;13.00;99.90;;;;;;5089896;28;20036;-47
2022/06/05 01:51:06;;;;;;;15.32;11.55;;;13.10;99.90;;;;;;5078675;28;20454;-48
2022/06/05 01:53:38;;;;;;;12.95;11.35;;;13.10;99.90;;;;;;5071762;28;20066;-46
2022/06/05 01:56:30;;;;;;;17.48;11.48;;;13.10;99.90;;;;;;5090297;28;20055;-46
2022/06/05 01:59:25;;;;;;;19.13;12.18;;;13.00;99.90;;;;;;5083823;28;20532;-46
2022/06/05 02:01:56;;;;;;;16.63;12.32;;;13.00;99.90;;;;;;5071202;28;20087;-46
2022/06/05 02:04:32;;;;;;;16.42;12.00;;;13.00;99.90;;;;;;5068335;28;20076;-46
2022/06/05 02:07:08;;;;;;;15.98;12.25;;;13.00;99.90;;;;;;5089853;28;20032;-46
2022/06/05 02:09:44;;;;;;;17.47;12.50;;;13.00;99.90;;;;;;5084931;28;20032;-46
2022/06/05 02:12:09;;;;;;;15.23;12.80;;;13.00;99.90;;;;;;5081897;28;20373;-46
2022/06/05 02:14:37;;;;;;;15.13;13.27;;;12.90;99.90;;;;;;5088010;28;20120;-46
2022/06/05 02:17:05;;;;;;;16.38;12.30;;;12.90;99.90;;;;;;5077152;28;20041;-46
2022/06/05 02:19:33;;;;;;;16.25;11.82;;;12.90;99.90;;;;;;5070736;28;20102;-46
2022/06/05 02:22:13;;;;;;;18.20;12.90;;;12.90;99.90;;;;;;5076274;28;20408;-47
2022/06/05 02:24:38;;;;;;;19.25;13.50;;;12.90;99.90;;;;;;5069347;28;20079;-46
2022/06/05 02:27:06;;;;;;;26.00;14.90;;;12.90;99.90;;;;;;5069762;28;20507;-47
2022/06/05 02:29:32;;;;;;;18.60;13.13;;;12.90;99.90;;;;;;5071063;28;20557;-46
2022/06/05 02:32:06;;;;;;;;;;;12.80;99.90;;;;;;5075114;28;20076;-46
2022/06/05 02:34:53;;;;;;;23.08;13.30;;;12.80;99.90;;;;;;5089285;28;19923;-46
2022/06/05 02:37:39;;;;;;;18.67;13.02;;;12.90;99.90;;;;;;5086745;28;20528;-47
2022/06/05 02:40:18;;;;;;;18.48;13.43;;;12.80;99.90;;;;;;5070836;28;20496;-46
2022/06/05 02:42:50;;;;;;;20.33;13.55;;;12.90;99.90;;;;;;5070362;28;20056;-46
2022/06/05 02:45:25;;;;;;;18.08;13.25;;;12.90;99.90;;;;;;5069540;28;20070;-47
2022/06/05 02:48:18;;;;;;;19.85;14.32;;;12.80;99.90;;;;;;5068145;28;20504;-48
2022/06/05 02:50:47;;;;;;;16.63;11.85;;;12.80;99.90;;;;;;5070800;28;20363;-47
2022/06/05 02:53:14;;;;;;;20.83;13.70;;;12.90;99.90;;;;;;5077846;28;20119;-46
2022/06/05 02:55:40;;;;;;;18.73;12.65;;;12.90;99.90;;;;;;5093227;28;20039;-46
2022/06/05 02:58:07;;;;;;;16.10;13.25;;;12.80;99.90;;;;;;5078467;28;20097;-46
2022/06/05 03:00:35;;;;;;;15.77;12.70;;;12.80;99.90;;;;;;5074237;28;20052;-47
2022/06/05 03:05:45;;;;;;;17.85;13.07;;;12.90;99.90;;;;;;5093480;28;20040;-50
2022/06/05 03:08:13;;;;;;;16.88;13.95;;;12.80;99.90;;;;;;5093455;28;20089;-46
2022/06/05 03:10:40;;;;;;;18.20;13.90;;;12.80;99.90;;;;;;5091949;28;20040;-47
2022/06/05 03:13:05;;;;;;;20.45;14.15;;;12.80;99.90;;;;;;5088190;28;20063;-46
2022/06/05 03:15:31;;;;;;;23.65;13.65;;;12.80;99.90;;;;;;5074035;28;20040;-46
2022/06/05 03:17:57;;;;;;;18.20;13.23;;;12.80;99.90;;;;;;5080395;28;20048;-47
2022/06/05 03:20:23;;;;;;;16.67;13.18;;;12.80;99.90;;;;;;5073346;28;20060;-46
2022/06/05 03:22:49;;;;;;;19.38;13.60;;;12.80;99.90;;;;;;5072577;28;20115;-47
2022/06/05 03:25:18;;;;;;;16.92;12.98;;;12.80;99.90;;;;;;5082899;28;20119;-47
2022/06/05 03:27:45;;;;;;;18.95;13.48;;;12.80;99.90;;;;;;5083146;28;20116;-46
2022/06/05 03:30:11;;;;;;;21.33;14.32;;;12.80;99.90;;;;;;5072916;28;20111;-46
2022/06/05 03:32:37;;;;;;;20.83;14.73;;;12.80;99.90;;;;;;5072915;28;20121;-46
2022/06/05 03:35:04;;;;;;;19.92;13.85;;;12.80;99.90;;;;;;5075523;28;20126;-47
2022/06/05 03:37:29;;;;;;;17.85;13.80;;;12.80;99.90;;;;;;5091331;28;20404;-47
2022/06/05 03:39:55;;;;;;;16.55;14.68;;;12.80;99.90;;;;;;5091587;28;20043;-48
2022/06/05 03:42:21;;;;;;;17.17;14.25;;;12.80;99.90;;;;;;5089049;28;20043;-47
2022/06/05 03:44:46;;;;;;;19.98;14.73;;;12.80;99.90;;;;;;5071657;28;20127;-46
2022/06/05 03:47:12;;;;;;;20.27;15.30;;;12.80;99.90;;;;;;5091280;28;20040;-47
2022/06/05 03:49:39;;;;;;;20.15;14.80;;;12.80;99.90;;;;;;5092405;28;20286;-48
2022/06/05 03:52:05;;;;;;;21.05;15.10;;;12.80;99.90;;;;;;5092224;28;20048;-47
2022/06/05 03:54:33;;;;;;;19.42;14.75;;;12.90;99.90;;;;;;5089575;28;20078;-47
2022/06/05 03:56:59;;;;;;;20.02;13.38;;;12.80;99.90;;;;;;5084714;28;20169;-47
2022/06/05 03:59:25;;;;;;;19.45;13.95;;;12.90;99.90;;;;;;5092753;28;20050;-48
2022/06/05 04:01:50;;;;;;;18.27;14.57;;;12.90;99.90;;;;;;5086162;28;20044;-47
2022/06/05 04:04:16;;;;;;;20.30;14.73;;;12.90;99.90;;;;;;5079981;28;20032;-47
2022/06/05 04:06:41;;;;;;;15.93;12.83;;;12.90;99.90;;;;;;5086663;28;20283;-47
2022/06/05 04:09:08;;;;;;;20.05;14.35;;;12.90;99.90;;;;;;5073256;28;20123;-47
2022/06/05 04:11:37;;;;;;;17.00;14.55;;;12.90;99.90;;;;;;5071661;28;20040;-47
2022/06/05 04:14:03;;;;;;;21.08;13.30;;;13.00;99.90;;;;;;5071453;28;20037;-48
2022/06/05 04:16:30;;;;;;;20.45;15.45;;;13.00;99.90;;;;;;5089482;28;20063;-47
2022/06/05 04:18:58;;;;;;;22.40;14.27;;;13.00;99.90;;;;;;5091018;28;20040;-47
2022/06/05 04:21:27;;;;;;;16.75;13.32;;;13.00;99.90;;;;;;5091277;28;20047;-47
2022/06/05 04:23:53;;;;;;;21.02;13.48;;;13.00;99.90;;;;;;5079213;28;20123;-46
2022/06/05 04:26:25;;;;;;;24.98;14.05;;;13.10;99.90;;;;;;5089660;28;20405;-48
2022/06/05 04:28:54;;;;;;;16.48;12.63;;;13.10;99.90;;;;;;5077512;28;20033;-47
2022/06/05 04:31:46;;;;;;;18.73;14.68;;;13.20;99.90;;;;;;5071616;28;20051;-47
2022/06/05 04:34:15;;;;;;;19.65;13.82;;;13.10;99.90;;;;;;5069684;28;20682;-48
2022/06/05 04:36:41;;;;;;;18.00;11.85;;;13.20;99.90;;;;;;5081398;28;20036;-49
2022/06/05 04:39:08;;;;;;;21.30;14.93;;;13.20;99.90;;;;;;5081043;28;20382;-48
2022/06/05 04:41:34;;;;;;;17.05;14.07;;;13.20;99.90;;;;;;5070814;28;20064;-47
2022/06/05 04:44:00;;;;;;;17.50;13.85;;;13.30;99.90;;;;;;5079745;28;20039;-47
2022/06/05 04:46:27;;;;;;;18.35;14.75;;;13.30;99.90;;;;;;5089009;28;20040;-48
2022/06/05 04:48:53;;;;;;;20.02;14.93;;;13.30;99.90;;;;;;5087778;28;20485;-47
2022/06/05 04:51:19;;;;;;;17.98;13.70;;;13.40;99.90;;;;;;5070790;28;20032;-47
2022/06/05 04:53:46;;;;;;;17.10;13.55;;;13.40;99.90;;;;;;5072464;28;20039;-46
2022/06/05 04:56:14;;;;;;;19.15;14.50;;;13.40;99.90;;;;;;5091030;28;20497;-47
2022/06/05 04:58:41;;;;;;;17.80;14.60;;;13.40;99.90;;;;;;5090263;28;20040;-48
2022/06/05 05:01:11;;;;;;;16.55;13.63;;;13.50;99.90;;;;;;5070457;28;20044;-47
2022/06/05 05:03:37;;;;;;;19.85;14.30;;;13.60;99.90;;;;;;5068607;28;20089;-47
2022/06/05 05:06:02;;;;;;;18.27;13.73;;;13.60;99.90;;;;;;5089362;28;20454;-48
2022/06/05 05:08:28;;;;;;;18.10;14.07;;;13.70;99.90;;;;;;5089077;28;20047;-48
2022/06/05 05:10:53;;;;;;;17.40;13.13;;;13.80;99.90;;;;;;5080476;28;20039;-48
2022/06/05 05:13:19;;;;;;;17.27;13.13;;;13.90;99.90;;;;;;5069372;28;20037;-47
2022/06/05 05:15:49;;;;;;;15.02;12.98;;;14.00;99.90;;;;;;5070240;28;20048;-47
2022/06/05 05:18:14;;;;;;;18.73;13.45;;;14.00;99.90;;;;;;5072417;28;20408;-47
2022/06/05 05:20:40;;;;;;;19.67;12.93;;;14.10;99.90;;;;;;5074658;28;20044;-47
2022/06/05 05:23:07;;;;;;;16.42;12.88;;;14.20;99.90;;;;;;5090005;28;20039;-47
2022/06/05 05:25:33;;;;;;;20.83;13.05;;;14.30;99.90;;;;;;5086318;28;20041;-47
2022/06/05 05:27:58;;;;;;;15.15;12.85;;;14.30;99.90;;;;;;5090568;28;20100;-47
2022/06/05 05:30:24;;;;;;;23.67;13.25;;;14.40;99.90;;;;;;5087262;28;20045;-48
2022/06/05 05:32:50;;;;;;;17.48;12.82;;;14.40;99.90;;;;;;5087579;28;20072;-47
2022/06/05 05:35:17;;;;;;;14.70;13.13;;;14.50;99.90;;;;;;5090433;28;20044;-47
2022/06/05 05:37:42;;;;;;;14.45;12.95;;;14.50;99.90;;;;;;5087686;28;20449;-47
2022/06/05 05:42:54;;;;;;;15.10;12.88;;;14.60;99.90;;;;;;5085189;28;20048;-47
2022/06/05 05:45:20;;;;;;;16.70;12.35;;;14.70;99.90;;;;;;5090529;28;20382;-47
2022/06/05 05:47:45;;;;;;;16.50;12.18;;;14.70;99.90;;;;;;5088735;28;20028;-47
2022/06/05 05:50:15;;;;;;;17.27;12.60;;;14.70;99.90;;;;;;5088654;28;20040;-47
2022/06/05 05:52:42;;;;;;;28.40;12.90;;;14.80;99.90;;;;;;5088639;28;20050;-46
2022/06/05 05:55:12;;;;;;;18.65;12.73;;;14.80;99.90;;;;;;5089429;28;20047;-48
2022/06/05 05:57:39;;;;;;;15.95;11.90;;;14.90;99.90;;;;;;5086823;28;20036;-47
2022/06/05 06:00:09;;;;;;;15.32;10.93;;;14.90;99.90;;;;;;5089076;28;20044;-47
2022/06/05 06:02:35;;;;;;;19.65;12.35;;;15.00;99.90;;;;;;5069313;28;20082;-47
2022/06/05 06:05:02;;;;;;;19.70;12.77;;;15.00;99.90;;;;;;5069475;28;20135;-47
2022/06/05 06:07:27;;;;;;;15.70;11.80;;;15.10;99.90;;;;;;5069814;28;20115;-46
2022/06/05 06:09:53;;;;;;;15.38;11.00;;;15.10;99.90;;;;;;5069357;28;20116;-47
2022/06/05 06:12:18;;;;;;;11.80;10.17;;;15.20;99.90;;;;;;5070715;28;20036;-47
2022/06/05 06:14:44;;;;;;;15.73;9.95;;;15.30;99.90;;;;;;5088650;28;20791;-47
2022/06/05 06:17:10;;;;;;;16.65;10.57;;;15.30;99.90;;;;;;5089651;28;20489;-47
2022/06/05 06:19:36;;;;;;;14.05;10.95;;;15.40;99.90;;;;;;5089144;28;20463;-47
2022/06/05 06:22:01;;;;;;;12.38;10.00;;;15.50;99.90;;;;;;5087317;28;20097;-47
2022/06/05 06:24:27;;;;;;;13.65;10.32;;;15.50;99.90;;;;;;5082877;28;20055;-47
2022/06/05 06:26:53;;;;;;;10.60;9.60;;;15.60;99.90;;;;;;5089781;28;20066;-47
2022/06/05 06:29:18;;;;;;;14.45;9.75;;;15.70;99.90;;;;;;5090452;28;20476;-47
2022/06/05 06:31:44;;;;;;;10.63;9.63;;;15.70;99.90;;;;;;5093340;28;20040;-47
2022/06/05 06:34:10;;;;;;;12.23;9.52;;;15.80;99.90;;;;;;5089965;28;20028;-47
2022/06/05 06:36:36;;;;;;;12.80;9.57;;;15.90;99.90;;;;;;5073844;28;20045;-47
2022/06/05 06:39:02;;;;;;;11.80;10.32;;;16.00;99.90;;;;;;5072503;28;20485;-47
2022/06/05 06:41:27;;;;;;;;;;;16.10;99.90;;;;;;5094257;28;20051;-47
2022/06/05 06:43:53;;;;;;;14.07;8.43;;;16.20;99.90;;;;;;5091534;28;19916;-47
2022/06/05 06:46:19;;;;;;;11.57;8.18;;;16.30;99.90;;;;;;5078739;28;20039;-48
2022/06/05 06:48:45;;;;;;;12.40;9.18;;;16.40;99.90;;;;;;5083990;28;20391;-47
2022/06/05 06:51:12;;;;;;;11.73;8.88;;;16.50;99.90;;;;;;5073562;28;20316;-48
2022/06/05 06:53:39;;;;;;;12.85;8.18;;;16.60;99.90;;;;;;5082644;28;20032;-47
2022/06/05 06:56:14;;;;;;;16.45;8.18;;;16.80;99.90;;;;;;5090476;28;20077;-46
2022/06/05 06:58:40;;;;;;;9.35;7.88;;;16.80;99.90;;;;;;5076436;28;20041;-45
2022/06/05 07:01:06;;;;;;;9.25;8.00;;;17.00;99.90;;;;;;5074805;28;20072;-47
2022/06/05 07:03:33;;;;;;;14.00;8.55;;;17.10;99.90;;;;;;5072149;28;20071;-47
2022/06/05 07:06:00;;;;;;;9.05;7.75;;;17.10;99.90;;;;;;5074426;28;20050;-47
2022/06/05 07:08:26;;;;;;;10.30;7.93;;;17.20;99.90;;;;;;5072942;28;20071;-47
2022/06/05 07:10:52;;;;;;;10.15;7.80;;;17.30;99.90;;;;;;5077758;28;20408;-48
2022/06/05 07:13:18;;;;;;;15.10;7.15;;;17.40;99.90;;;;;;5084092;28;20033;-47
2022/06/05 07:15:43;;;;;;;12.23;7.28;;;17.50;99.90;;;;;;5073889;28;20184;-48
2022/06/05 07:18:09;;;;;;;8.77;7.00;;;17.60;99.90;;;;;;5075195;28;20086;-47
2022/06/05 07:20:37;;;;;;;10.32;7.05;;;17.70;99.90;;;;;;5090078;28;20040;-47
2022/06/05 07:23:03;;;;;;;8.85;7.32;;;17.70;99.90;;;;;;5086831;28;20076;-47
2022/06/05 07:25:29;;;;;;;;;;;17.80;99.90;;;;;;5074666;28;20090;-48
2022/06/05 07:27:55;;;;;;;10.75;7.00;;;17.90;99.90;;;;;;5089106;28;19923;-48
2022/06/05 07:30:21;;;;;;;9.07;7.07;;;18.00;99.90;;;;;;5093071;28;20036;-48
2022/06/05 07:32:47;;;;;;;7.90;6.60;;;18.10;99.90;;;;;;5075953;28;20530;-47
2022/06/05 07:35:13;;;;;;;7.40;6.63;;;18.10;99.90;;;;;;5072288;28;20402;-48
2022/06/05 07:37:40;;;;;;;8.07;6.82;;;18.20;99.90;;;;;;5073916;28;20394;-48
2022/06/05 07:40:07;;;;;;;9.65;7.93;;;18.30;99.90;;;;;;5071634;28;20047;-47
2022/06/05 07:42:38;;;;;;;9.52;7.15;;;18.30;99.90;;;;;;5071536;28;20048;-47
2022/06/05 07:45:05;;;;;;;9.73;7.40;;;18.40;99.90;;;;;;5074425;28;20037;-47
2022/06/05 07:47:31;;;;;;;6.95;6.35;;;18.50;99.90;;;;;;5073442;28;20090;-47
2022/06/05 07:49:57;;;;;;;8.30;6.97;;;18.50;99.90;;;;;;5071948;28;20511;-47
2022/06/05 07:55:07;;;;;;;7.28;6.57;;;18.60;99.90;;;;;;5070652;28;20052;-47
2022/06/05 07:57:33;;;;;;;9.68;6.97;;;18.70;99.90;;;;;;5073345;28;20041;-47
2022/06/05 07:59:58;;;;;;;7.38;6.15;;;18.70;99.90;;;;;;5072063;28;20047;-47
2022/06/05 08:02:27;;;;;;;8.30;7.40;;;18.80;99.90;;;;;;5071145;28;20036;-48
2022/06/05 08:04:54;;;;;;;8.35;6.55;;;18.80;99.90;;;;;;5071763;28;20044;-48
2022/06/05 08:07:22;;;;;;;7.88;6.15;;;18.80;99.90;;;;;;5072501;28;20371;-48
2022/06/05 08:09:48;;;;;;;7.70;6.38;;;18.90;99.90;;;;;;5073218;28;20049;-47
2022/06/05 08:12:16;;;;;;;12.52;7.50;;;18.90;99.90;;;;;;5071433;28;20521;-47
2022/06/05 08:14:43;;;;;;;6.95;6.25;;;18.90;99.90;;;;;;5083751;28;20044;-47
2022/06/05 08:17:12;;;;;;;7.97;7.10;;;18.90;99.90;;;;;;5091248;28;20032;-47
2022/06/05 08:19:39;;;;;;;10.95;6.85;;;19.00;99.90;;;;;;5073193;28;20045;-47
2022/06/05 08:22:07;;;;;;;9.52;6.47;;;19.00;99.90;;;;;;5070273;28;20037;-49
2022/06/05 08:24:33;;;;;;;11.15;6.63;;;19.10;99.90;;;;;;5090907;28;20051;-47
2022/06/05 08:26:59;;;;;;;7.40;6.63;;;19.10;99.90;;;;;;5080766;28;20489;-47
2022/06/05 08:29:25;;;;;;;8.65;7.03;;;19.20;99.90;;;;;;5077262;28;20036;-46
2022/06/05 08:31:51;;;;;;;9.27;6.35;;;19.20;99.90;;;;;;5073251;28;20044;-47
2022/06/05 08:34:17;;;;;;;11.15;6.35;;;19.30;99.90;;;;;;5074205;28;20035;-47
2022/06/05 08:36:42;;;;;;;;;;;19.40;99.70;;;;;;5087134;28;20047;-46
2022/06/05 08:42:19;;;;;;;7.22;6.38;;;19.60;99.70;;;;;;5090012;28;20040;-48
2022/06/05 08:44:44;;;;;;;6.78;5.68;;;19.70;99.30;;;;;;5077883;28;20227;-47
2022/06/05 08:47:26;;;;;;;6.15;5.57;;;19.80;99.20;;;;;;5071219;28;20119;-47
2022/06/05 08:50:29;;;;;;;6.38;5.78;;;19.90;99.20;;;;;;5075208;28;20489;-48
2022/06/05 08:53:04;;;;;;;8.25;5.88;;;20.00;99.20;;;;;;5068921;28;20582;-47
2022/06/05 08:55:36;;;;;;;9.07;6.05;;;20.10;98.70;;;;;;5079738;28;20116;-47
2022/06/05 08:58:36;;;;;;;6.38;5.78;;;20.10;99.60;;;;;;5081640;28;20065;-47
2022/06/05 09:01:07;;;;;;;5.95;5.38;;;20.20;98.90;;;;;;5075137;28;20105;-48
2022/06/05 09:04:21;;;;;;;7.03;6.32;;;20.20;99.30;;;;;;5073321;28;20072;-47
2022/06/05 09:07:10;;;;;;;10.38;5.57;;;20.30;98.50;;;;;;5086145;28;20059;-47
2022/06/05 09:09:45;;;;;;;7.35;5.50;;;20.30;99.00;;;;;;5085208;28;20050;-47
2022/06/05 09:12:25;;;;;;;6.38;5.50;;;20.40;98.90;;;;;;5073090;28;20072;-47
2022/06/05 09:15:05;;;;;;;5.90;5.40;;;20.50;98.70;;;;;;5087398;28;20047;-47
2022/06/05 09:17:31;;;;;;;7.13;6.45;;;20.60;98.90;;;;;;5075087;28;20228;-47
2022/06/05 09:19:58;;;;;;;6.97;5.60;;;20.70;98.60;;;;;;5070512;28;20103;-47
2022/06/05 09:22:48;;;;;;;5.95;5.45;;;20.80;98.30;;;;;;5070963;28;20414;-47
2022/06/05 09:25:26;;;;;;;8.80;6.00;;;20.90;98.30;;;;;;5070355;28;20477;-47
2022/06/05 09:27:57;;;;;;;9.38;5.65;;;21.00;98.30;;;;;;5086725;28;20032;-47
2022/06/05 09:30:44;;;;;;;7.40;5.63;;;21.00;97.70;;;;;;5089987;28;20036;-48
2022/06/05 09:33:18;;;;;;;6.35;4.57;;;21.20;97.70;;;;;;5086411;28;20432;-47
2022/06/05 09:35:56;;;;;;;21.25;6.60;;;21.20;97.80;;;;;;5090751;28;20378;-48
2022/06/05 09:38:43;;;;;;;24.05;6.25;;;21.40;98.20;;;;;;5080682;28;20448;-49
2022/06/05 09:41:11;;;;;;;;;;;21.50;98.10;;;;;;5083492;28;20416;-51
2022/06/05 09:44:01;;;;;;;63.67;7.95;;;21.60;97.90;;;;;;5082624;28;20278;-51
2022/06/05 09:46:30;;;;;;;7.75;5.30;;;21.70;97.60;;;;;;5070080;28;20047;-47
2022/06/05 09:49:21;;;;;;;8.30;5.43;;;21.90;97.70;;;;;;5088715;28;20512;-51
2022/06/05 09:51:46;;;;;;;26.70;6.43;;;21.90;96.50;;;;;;5089787;28;20081;-48
2022/06/05 09:54:12;;;;;;;;;;;22.00;96.50;;;;;;5087993;28;20489;-47
2022/06/05 09:59:54;;;;;;;8.18;5.63;;;22.20;96.30;;;;;;5090110;28;20127;-51
2022/06/05 10:02:22;;;;;;;521.95;55.40;;;22.20;96.20;;;;;;5089552;28;20036;-51
2022/06/05 10:04:48;;;;;;;6.38;5.28;;;22.20;95.80;;;;;;5087082;28;20051;-47
2022/06/05 10:07:36;;;;;;;65.72;9.68;;;22.10;96.00;;;;;;5082722;28;20035;-49
2022/06/05 10:10:03;;;;;;;;;;;22.10;95.40;;;;;;5074697;28;20043;-50
2022/06/05 10:12:48;;;;;;;8.50;5.20;;;22.20;94.90;;;;;;5087673;28;19961;-49
2022/06/05 10:15:50;;;;;;;9.13;5.38;;;22.20;95.70;;;;;;5077249;28;20068;-51
2022/06/05 10:18:30;;;;;;;86.45;12.18;;;22.30;95.60;;;;;;5031305;28;20083;-48
2022/06/05 10:21:11;;;;;;;12.95;5.72;;;22.40;96.00;;;;;;5044076;28;20270;-48
2022/06/05 10:24:04;;;;;;;9.27;4.93;;;22.50;95.40;;;;;;5031402;28;20132;-49
2022/06/05 10:26:35;;;;;;;10.35;5.80;;;22.50;95.40;;;;;;5028762;28;20578;-48
2022/06/05 10:29:28;;;;;;;11.15;5.68;;;22.50;95.30;;;;;;5028137;28;20072;-49
2022/06/05 10:32:21;;;;;;;9.15;6.03;;;22.50;95.10;;;;;;5030836;28;20033;-50
2022/06/05 10:35:02;;;;;;;9.23;5.05;;;22.50;94.50;;;;;;5046344;28;20049;-50
2022/06/05 10:37:37;;;;;;;6.60;5.93;;;22.50;94.90;;;;;;5032001;28;20038;-50
2022/06/05 10:40:20;;;;;;;9.63;5.95;;;22.50;94.70;;;;;;5044481;28;20060;-51
2022/06/05 10:43:04;;;;;;;5.13;4.63;;;22.40;94.60;;;;;;5043924;28;20053;-50
2022/06/05 10:45:42;;;;;;;6.10;5.60;;;22.40;94.90;;;;;;5038500;28;20517;-50
2022/06/05 10:48:07;;;;;;;10.18;5.38;;;22.40;95.00;;;;;;5027124;28;20051;-48
2022/06/05 10:51:04;;;;;;;5.88;5.35;;;22.40;94.90;;;;;;5030015;28;20029;-48
2022/06/05 10:53:49;;;;;;;9.88;4.93;;;22.40;94.70;;;;;;5026178;28;20148;-48
2022/06/05 10:56:51;;;;;;;5.97;5.35;;;22.40;95.00;;;;;;5070311;28;20544;-48
2022/06/05 10:59:39;;;;;;;8.73;5.47;;;22.30;94.50;;;;;;5081093;28;20118;-50
2022/06/05 11:02:30;;;;;;;9.52;5.60;;;22.30;94.10;;;;;;5079675;28;20124;-49
2022/06/05 11:05:32;;;;;;;5.32;4.80;;;22.30;94.60;;;;;;5069036;28;20044;-48
2022/06/05 11:08:23;;;;;;;5.88;4.95;;;22.20;94.60;;;;;;5070033;28;20528;-47
2022/06/05 11:14:40;;;;;;;7.05;5.45;;;22.10;94.80;;;;;;5045867;28;20049;-48
2022/06/05 11:17:32;;;;;;;5.88;5.38;;;22.10;94.90;;;;;;5037087;28;20037;-47
2022/06/05 11:20:14;;;;;;;6.20;5.55;;;22.10;94.30;;;;;;5048181;28;20045;-48
2022/06/05 11:23:19;;;;;;;9.43;4.80;;;22.10;94.80;;;;;;5047842;28;20079;-48
2022/06/05 11:25:54;;;;;;;8.43;5.82;;;22.10;95.00;;;;;;4990475;28;20170;-47
2022/06/05 11:28:48;;;;;;;6.35;5.30;;;22.10;94.30;;;;;;5027144;28;20144;-47
2022/06/05 11:31:49;;;;;;;5.32;4.82;;;22.10;94.70;;;;;;5028102;28;20053;-50
2022/06/05 11:34:39;;;;;;;6.10;5.55;;;22.10;94.90;;;;;;4980699;28;20046;-48
2022/06/05 11:37:16;;;;;;;4.32;3.95;;;22.10;95.10;;;;;;4967574;28;20109;-47
2022/06/05 11:39:59;;;;;;;5.63;5.07;;;22.20;94.70;;;;;;4984957;28;20042;-48
2022/06/05 11:42:40;;;;;;;5.65;5.13;;;22.20;94.70;;;;;;4989204;28;20101;-48
2022/06/05 11:45:49;;;;;;;6.95;4.93;;;22.30;94.90;;;;;;4989596;28;20054;-46
2022/06/05 11:48:19;;;;;;;5.00;4.57;;;22.30;94.50;;;;;;4989799;28;20520;-49
2022/06/05 11:50:51;;;;;;;5.20;4.60;;;22.30;94.70;;;;;;5001834;28;20172;-47
2022/06/05 11:53:34;;;;;;;8.27;5.20;;;22.20;94.40;;;;;;5010444;28;20042;-48
2022/06/05 11:56:24;;;;;;;5.05;4.60;;;22.30;94.70;;;;;;5012075;28;20046;-51
2022/06/05 11:59:07;;;;;;;5.65;5.07;;;22.30;94.60;;;;;;5010137;28;20105;-49
2022/06/05 12:01:38;;;;;;;5.13;4.72;;;22.30;94.60;;;;;;4999993;28;20045;-49
2022/06/05 12:04:33;;;;;;;4.15;3.95;;;22.30;94.90;;;;;;5019097;28;20619;-50
2022/06/05 12:07:04;;;;;;;5.50;5.03;;;22.30;95.00;;;;;;5017484;28;20045;-50
2022/06/05 12:09:45;;;;;;;5.30;4.90;;;22.30;95.10;;;;;;5044890;28;20068;-47
2022/06/05 12:12:24;;;;;;;5.65;4.53;;;22.30;95.10;;;;;;5072447;28;20044;-47
2022/06/05 12:15:15;;;;;;;4.18;3.88;;;22.30;94.60;;;;;;5071461;28;20048;-47
2022/06/05 12:18:15;;;;;;;4.85;4.53;;;22.40;94.70;;;;;;5073151;28;20076;-47
2022/06/05 12:20:46;;;;;;;7.85;4.75;;;22.40;94.80;;;;;;5075618;28;20074;-49
2022/06/05 12:23:35;;;;;;;6.22;4.53;;;22.40;95.40;;;;;;5069213;28;20061;-47
2022/06/05 12:26:19;;;;;;;7.47;4.30;;;22.40;94.60;;;;;;5091397;28;20040;-47
2022/06/05 12:28:58;;;;;;;5.75;4.60;;;22.50;94.80;;;;;;5080576;28;20040;-48
2022/06/05 12:31:28;;;;;;;6.65;4.28;;;22.50;95.10;;;;;;5071031;28;20036;-47
2022/06/05 12:34:13;;;;;;;4.72;4.07;;;22.50;95.10;;;;;;5070744;28;20119;-47
2022/06/05 12:36:57;;;;;;;4.72;4.32;;;22.50;95.00;;;;;;5074351;28;20055;-49
2022/06/05 12:39:31;;;;;;;4.88;4.43;;;22.60;94.70;;;;;;5078196;28;20173;-47
2022/06/05 12:42:08;;;;;;;4.75;4.20;;;22.60;94.80;;;;;;5082562;28;20040;-47
2022/06/05 12:45:05;;;;;;;5.28;4.47;;;22.70;94.80;;;;;;5081702;28;20409;-47
2022/06/05 12:47:45;;;;;;;4.85;4.45;;;22.80;94.50;;;;;;5069083;28;20123;-47
2022/06/05 12:50:30;;;;;;;5.07;4.47;;;22.80;94.40;;;;;;5079418;28;20522;-47
2022/06/05 12:53:04;;;;;;;5.28;4.50;;;22.90;94.20;;;;;;5073653;28;20044;-46
2022/06/05 12:55:43;;;;;;;4.72;4.32;;;22.90;94.40;;;;;;5092910;28;20043;-47
2022/06/05 12:58:27;;;;;;;5.65;4.40;;;23.00;94.70;;;;;;5081431;28;20040;-47
2022/06/05 13:01:15;;;;;;;6.57;4.90;;;23.00;94.50;;;;;;5080174;28;20383;-46
2022/06/05 13:03:50;;;;;;;4.75;4.35;;;23.00;94.40;;;;;;5070648;28;20420;-47
2022/06/05 13:07:01;;;;;;;5.50;5.10;;;23.00;94.50;;;;;;5070441;28;20616;-47
2022/06/05 13:09:52;;;;;;;8.25;4.90;;;23.00;94.70;;;;;;5064534;28;20119;-47
2022/06/05 13:12:28;;;;;;;6.15;4.75;;;23.00;93.90;;;;;;5070908;28;20405;-47
2022/06/05 13:15:18;;;;;;;5.28;4.75;;;23.00;94.00;;;;;;5078459;28;20065;-47
2022/06/05 13:17:56;;;;;;;6.75;4.15;;;23.00;94.30;;;;;;5084960;28;20056;-47
2022/06/05 13:20:37;;;;;;;4.70;4.38;;;23.10;94.10;;;;;;5079719;28;20070;-47
2022/06/05 13:23:43;;;;;;;6.05;4.65;;;23.10;93.60;;;;;;5079941;28;20048;-47
2022/06/05 13:26:22;;;;;;;4.90;3.92;;;23.20;93.80;;;;;;5014094;28;20513;-47
2022/06/05 13:29:15;;;;;;;4.65;4.03;;;23.30;94.00;;;;;;5067638;28;20052;-48
2022/06/05 13:31:58;;;;;;;4.40;4.00;;;23.30;93.60;;;;;;5069314;28;20512;-47
2022/06/05 13:34:38;;;;;;;4.53;4.00;;;23.40;94.00;;;;;;5069946;28;20044;-48